createdAt,value
2023-05-15T00:00:35.013Z,87.97
2023-05-15T00:03:02.537Z,87.31
2023-05-15T00:05:29.354Z,87.69
2023-05-15T00:07:56.150Z,87.59
2023-05-15T00:10:22.877Z,88.06
2023-05-15T00:12:50.298Z,87.85
2023-05-15T00:15:17.223Z,87.67
2023-05-15T00:17:43.851Z,86.50
2023-05-15T00:20:11.352Z,86.60
2023-05-15T00:22:38.208Z,86.92
2023-05-15T00:25:05.210Z,86.60
2023-05-15T00:27:31.843Z,85.83
2023-05-15T00:29:58.523Z,87.49
2023-05-15T00:32:25.182Z,87.33
2023-05-15T00:34:51.945Z,86.85
2023-05-15T00:37:19.557Z,87.02
2023-05-15T00:39:46.232Z,86.55
2023-05-15T00:42:13.530Z,86.88
2023-05-15T00:44:41.498Z,86.83
2023-05-15T00:47:10.858Z,86.53
2023-05-15T00:49:38.773Z,87.34
2023-05-15T00:52:08.412Z,86.55
2023-05-15T00:54:35.414Z,86.67
2023-05-15T00:57:03.885Z,86.75
2023-05-15T00:59:31.873Z,87.10
2023-05-15T01:01:58.553Z,87.21
2023-05-15T01:04:25.585Z,88.06
2023-05-15T01:06:54.068Z,87.14
2023-05-15T01:09:23.692Z,87.60
2023-05-15T01:11:53.696Z,87.31
2023-05-15T01:14:20.487Z,86.84
2023-05-15T01:16:47.284Z,86.79
2023-05-15T01:19:14.490Z,86.49
2023-05-15T01:21:59.874Z,86.05
2023-05-15T01:24:55.783Z,86.04
2023-05-15T01:27:51.452Z,85.73
2023-05-15T01:30:30.153Z,85.22
2023-05-15T01:33:17.338Z,85.24
2023-05-15T01:36:08.082Z,84.35
2023-05-15T01:38:42.991Z,85.02
2023-05-15T01:41:11.798Z,84.93
2023-05-15T01:43:42.272Z,86.15
2023-05-15T01:46:11.565Z,85.69
2023-05-15T01:48:40.768Z,84.62
2023-05-15T01:51:10.278Z,84.52
2023-05-15T01:53:38.807Z,85.20
2023-05-15T01:56:08.230Z,86.04
2023-05-15T01:58:38.444Z,85.99
2023-05-15T02:01:06.081Z,85.84
2023-05-15T02:03:36.733Z,88.18
2023-05-15T02:06:05.044Z,88.88
2023-05-15T02:08:35.124Z,87.76
2023-05-15T02:11:03.384Z,87.93
2023-05-15T02:13:31.641Z,89.09
2023-05-15T02:15:58.540Z,90.45
2023-05-15T02:18:25.480Z,90.46
2023-05-15T02:20:52.145Z,90.42
2023-05-15T02:23:20.706Z,91.03
2023-05-15T02:26:07.954Z,91.95
2023-05-15T02:28:43.352Z,91.34
2023-05-15T02:31:23.768Z,92.54
2023-05-15T02:34:13.139Z,91.95
2023-05-15T02:36:44.621Z,91.10
2023-05-15T02:39:13.424Z,90.58
2023-05-15T02:41:40.497Z,90.42
2023-05-15T02:44:08.809Z,91.19
2023-05-15T02:46:37.323Z,90.69
2023-05-15T02:49:04.147Z,90.63
2023-05-15T02:51:31.196Z,90.19
2023-05-15T02:54:01.052Z,90.29
2023-05-15T02:56:27.573Z,90.33
2023-05-15T02:58:54.524Z,91.09
2023-05-15T03:01:21.372Z,91.84
2023-05-15T03:03:48.290Z,91.85
2023-05-15T03:06:14.995Z,93.11
2023-05-15T03:08:41.955Z,92.24
2023-05-15T03:11:08.522Z,91.68
2023-05-15T03:13:35.178Z,91.58
2023-05-15T03:16:01.868Z,92.73
2023-05-15T03:18:28.546Z,93.70
2023-05-15T03:20:55.191Z,93.74
2023-05-15T03:23:21.876Z,92.68
2023-05-15T03:25:48.565Z,93.13
2023-05-15T03:28:15.236Z,91.60
2023-05-15T03:30:44.736Z,92.05
2023-05-15T03:33:11.392Z,92.15
2023-05-15T03:35:38.143Z,91.37
2023-05-15T03:38:04.730Z,91.62
2023-05-15T03:40:31.317Z,90.91
2023-05-15T03:42:58.470Z,90.71
2023-05-15T03:45:25.218Z,90.60
2023-05-15T03:47:52.026Z,91.38
2023-05-15T03:50:19.863Z,90.92
2023-05-15T03:52:47.165Z,92.19
2023-05-15T03:55:13.846Z,92.47
2023-05-15T03:57:41.721Z,91.36
2023-05-15T04:00:12.459Z,90.98
2023-05-15T04:02:40.373Z,91.04
2023-05-15T04:05:07.938Z,92.32
2023-05-15T04:07:37.950Z,91.80
2023-05-15T04:10:05.087Z,92.41
2023-05-15T04:12:34.231Z,91.33
2023-05-15T04:15:24.480Z,92.70
2023-05-15T04:17:53.678Z,93.30
2023-05-15T04:20:23.129Z,92.22
2023-05-15T04:22:50.757Z,93.10
2023-05-15T04:25:18.209Z,93.52
2023-05-15T04:27:45.054Z,92.92
2023-05-15T04:30:14.100Z,91.93
2023-05-15T04:32:41.143Z,90.96
2023-05-15T04:35:10.549Z,91.50
2023-05-15T04:37:38.549Z,91.92
2023-05-15T04:40:08.830Z,91.50
2023-05-15T04:42:39.544Z,91.92
2023-05-15T04:45:07.350Z,92.36
2023-05-15T04:47:34.316Z,93.32
2023-05-15T04:50:03.109Z,93.45
2023-05-15T04:52:30.001Z,93.68
2023-05-15T04:54:56.615Z,93.14
2023-05-15T04:57:25.862Z,93.21
2023-05-15T04:59:52.802Z,93.58
2023-05-15T05:02:23.513Z,92.82
2023-05-15T05:04:50.530Z,91.01
2023-05-15T05:07:17.311Z,90.57
2023-05-15T05:09:44.500Z,90.97
2023-05-15T05:12:11.276Z,90.36
2023-05-15T05:14:40.501Z,91.52
2023-05-15T05:17:07.240Z,91.03
2023-05-15T05:19:33.936Z,90.42
2023-05-15T05:22:04.680Z,91.51
2023-05-15T05:24:37.724Z,90.52
2023-05-15T05:27:05.209Z,89.95
2023-05-15T05:29:32.637Z,91.62
2023-05-15T05:31:59.371Z,90.33
2023-05-15T05:34:26.030Z,90.62
2023-05-15T05:36:52.682Z,90.29
2023-05-15T05:39:19.452Z,90.18
2023-05-15T05:41:46.058Z,90.43
2023-05-15T05:44:12.881Z,90.12
2023-05-15T05:46:41.167Z,91.29
2023-05-15T05:49:07.770Z,90.12
2023-05-15T05:51:37.279Z,89.63
2023-05-15T05:54:04.294Z,89.48
2023-05-15T05:56:31.478Z,89.76
2023-05-15T05:58:59.652Z,90.04
2023-05-15T06:01:27.009Z,89.93
2023-05-15T06:03:53.850Z,89.40
2023-05-15T06:06:20.524Z,90.94
2023-05-15T06:08:47.076Z,90.12
2023-05-15T06:11:13.790Z,90.29
2023-05-15T06:13:41.088Z,90.07
2023-05-15T06:16:07.834Z,89.39
2023-05-15T06:18:34.504Z,89.08
2023-05-15T06:21:04.048Z,88.66
2023-05-15T06:23:30.718Z,87.19
2023-05-15T06:25:57.445Z,87.31
2023-05-15T06:28:27.354Z,87.67
2023-05-15T06:30:53.988Z,87.38
2023-05-15T06:33:23.735Z,87.91
2023-05-15T06:35:50.830Z,88.29
2023-05-15T06:38:17.752Z,87.18
2023-05-15T06:40:44.401Z,87.48
2023-05-15T06:43:11.164Z,87.18
2023-05-15T06:45:37.809Z,87.42
2023-05-15T06:48:07.221Z,89.03
2023-05-15T06:50:33.857Z,87.63
2023-05-15T06:53:01.303Z,88.84
2023-05-15T06:55:28.103Z,88.00
2023-05-15T06:57:54.862Z,88.62
2023-05-15T07:00:21.599Z,88.50
2023-05-15T07:02:48.308Z,87.99
2023-05-15T07:05:15.212Z,86.85
2023-05-15T07:07:42.809Z,87.54
2023-05-15T07:10:09.786Z,87.85
2023-05-15T07:12:36.554Z,86.45
2023-05-15T07:15:03.695Z,86.68
2023-05-15T07:17:33.615Z,86.64
2023-05-15T07:20:00.325Z,86.82
2023-05-15T07:22:28.060Z,87.11
2023-05-15T07:24:54.947Z,86.21
2023-05-15T07:27:21.538Z,86.01
2023-05-15T07:29:48.144Z,86.26
2023-05-15T07:32:14.825Z,86.27
2023-05-15T07:34:42.754Z,87.26
2023-05-15T07:37:09.943Z,85.88
2023-05-15T07:39:36.765Z,85.79
2023-05-15T07:42:03.479Z,86.11
2023-05-15T07:44:30.257Z,85.25
2023-05-15T07:46:57.011Z,86.68
2023-05-15T07:49:23.613Z,86.78
2023-05-15T07:51:50.392Z,85.55
2023-05-15T07:54:17.011Z,86.23
2023-05-15T07:56:43.998Z,84.68
2023-05-15T07:59:10.793Z,83.59
2023-05-15T08:01:37.437Z,84.26
2023-05-15T08:04:08.473Z,84.22
2023-05-15T08:06:38.190Z,83.49
2023-05-15T08:09:04.863Z,84.22
2023-05-15T08:11:33.782Z,84.40
2023-05-15T08:14:00.696Z,83.58
2023-05-15T08:16:30.086Z,86.22
2023-05-15T08:19:01.605Z,85.29
2023-05-15T08:21:28.401Z,86.57
2023-05-15T08:23:55.048Z,88.09
2023-05-15T08:26:21.832Z,86.23
2023-05-15T08:28:48.553Z,87.54
2023-05-15T08:31:15.231Z,84.13
2023-05-15T08:33:41.942Z,84.04
2023-05-15T08:36:08.928Z,83.48
2023-05-15T08:38:35.644Z,83.65
2023-05-15T08:41:36.320Z,82.91
2023-05-15T08:44:09.405Z,79.62
2023-05-15T08:46:36.569Z,81.10
2023-05-15T08:49:13.101Z,83.86
2023-05-15T08:51:39.919Z,83.04
2023-05-15T08:54:10.267Z,83.07
2023-05-15T08:56:39.493Z,82.50
2023-05-15T08:59:06.432Z,81.80
2023-05-15T09:01:34.232Z,83.76
2023-05-15T09:04:01.283Z,84.14
2023-05-15T09:06:28.539Z,84.63
2023-05-15T09:08:57.680Z,81.28
2023-05-15T09:11:25.960Z,81.26
2023-05-15T09:13:53.613Z,81.71
2023-05-15T09:16:21.602Z,79.90
2023-05-15T09:18:50.010Z,79.07
2023-05-15T09:21:26.780Z,78.93
2023-05-15T09:24:17.199Z,78.54
2023-05-15T09:26:46.903Z,79.68
2023-05-15T09:29:18.085Z,81.52
2023-05-15T09:31:48.775Z,81.77
2023-05-15T09:34:18.393Z,82.26
2023-05-15T09:36:45.123Z,79.42
2023-05-15T09:39:12.312Z,78.64
2023-05-15T09:41:43.201Z,79.13
2023-05-15T09:44:24.869Z,79.29
2023-05-15T09:46:52.056Z,79.26
2023-05-15T09:49:19.900Z,78.20
2023-05-15T09:51:48.754Z,79.06
2023-05-15T09:54:17.349Z,78.02
2023-05-15T09:56:47.742Z,78.30
2023-05-15T09:59:16.410Z,78.17
2023-05-15T10:01:47.670Z,78.44
2023-05-15T10:04:14.872Z,78.20
2023-05-15T10:06:48.477Z,78.47
2023-05-15T10:09:15.874Z,77.72
2023-05-15T10:11:44.136Z,78.63
2023-05-15T10:14:13.684Z,83.14
2023-05-15T10:16:41.209Z,81.53
2023-05-15T10:19:10.700Z,80.46
2023-05-15T10:21:41.693Z,80.56
2023-05-15T10:24:08.812Z,81.22
2023-05-15T10:26:40.340Z,80.73
2023-05-15T10:29:18.868Z,81.84
2023-05-15T10:31:48.851Z,81.30
2023-05-15T10:34:16.435Z,82.63
2023-05-15T10:36:43.611Z,81.39
2023-05-15T10:39:10.579Z,82.85
2023-05-15T10:41:39.804Z,83.11
2023-05-15T10:44:07.239Z,82.83
2023-05-15T10:46:36.199Z,82.08
2023-05-15T10:49:03.279Z,82.00
2023-05-15T10:51:32.914Z,82.33
2023-05-15T10:54:03.691Z,83.39
2023-05-15T10:56:32.217Z,83.94
2023-05-15T10:59:06.403Z,84.72
2023-05-15T11:01:35.459Z,84.25
2023-05-15T11:04:07.439Z,84.04
2023-05-15T11:06:35.001Z,84.59
2023-05-15T11:09:27.638Z,83.12
2023-05-15T11:11:57.403Z,83.45
2023-05-15T11:14:25.612Z,83.96
2023-05-15T11:16:55.062Z,83.14
2023-05-15T11:19:32.425Z,83.04
2023-05-15T11:22:00.741Z,83.53
2023-05-15T11:24:32.104Z,83.15
2023-05-15T11:27:03.750Z,82.66
2023-05-15T11:29:31.610Z,83.50
2023-05-15T11:31:58.626Z,83.23
2023-05-15T11:34:35.035Z,83.06
2023-05-15T11:37:04.555Z,82.16
2023-05-15T11:39:31.335Z,82.79
2023-05-15T11:42:11.351Z,82.65
2023-05-15T11:44:38.215Z,83.37
2023-05-15T11:47:05.161Z,82.53
2023-05-15T11:49:31.879Z,84.57
2023-05-15T11:52:00.687Z,86.08
2023-05-15T11:54:28.026Z,82.71
2023-05-15T11:56:57.527Z,83.18
2023-05-15T11:59:27.046Z,82.30
2023-05-15T12:01:53.676Z,80.51
2023-05-15T12:04:20.823Z,80.19
2023-05-15T12:06:49.607Z,83.04
2023-05-15T12:09:21.778Z,82.45
2023-05-15T12:11:53.030Z,82.70
2023-05-15T12:14:35.693Z,83.16
2023-05-15T12:17:04.304Z,82.53
2023-05-15T12:19:31.547Z,82.39
2023-05-15T12:21:58.202Z,80.40
2023-05-15T12:24:28.960Z,80.57
2023-05-15T12:26:57.469Z,79.40
2023-05-15T12:29:25.787Z,78.65
2023-05-15T12:31:53.988Z,80.70
2023-05-15T12:34:21.855Z,78.90
2023-05-15T12:36:48.501Z,79.52
2023-05-15T12:39:15.161Z,78.82
2023-05-15T12:41:41.902Z,78.49
2023-05-15T12:44:18.509Z,77.31
2023-05-15T12:46:46.437Z,78.41
2023-05-15T12:49:13.310Z,79.92
2023-05-15T12:51:43.938Z,80.68
2023-05-15T12:54:20.678Z,81.06
2023-05-15T12:56:48.615Z,80.07
2023-05-15T12:59:15.387Z,78.61
2023-05-15T13:01:45.137Z,78.28
2023-05-15T13:04:11.931Z,78.99
2023-05-15T13:06:46.263Z,79.34
2023-05-15T13:09:13.929Z,79.28
2023-05-15T13:11:45.095Z,80.06
2023-05-15T13:14:17.376Z,77.79
2023-05-15T13:16:47.051Z,79.37
2023-05-15T13:19:14.265Z,78.78
2023-05-15T13:21:41.198Z,77.69
2023-05-15T13:24:11.094Z,77.56
2023-05-15T13:26:37.752Z,78.44
2023-05-15T13:29:04.788Z,78.51
2023-05-15T13:31:32.214Z,78.50
2023-05-15T13:33:58.893Z,77.96
2023-05-15T13:36:25.589Z,75.72
2023-05-15T13:38:52.312Z,76.19
2023-05-15T13:41:19.120Z,77.08
2023-05-15T13:43:47.874Z,76.97
2023-05-15T13:46:14.576Z,76.28
2023-05-15T13:48:41.247Z,77.56
2023-05-15T13:51:07.974Z,78.22
2023-05-15T13:53:34.559Z,77.68
2023-05-15T13:56:03.637Z,80.15
2023-05-15T13:58:30.573Z,78.72
2023-05-15T14:00:57.314Z,79.36
2023-05-15T14:06:14.204Z,79.47
2023-05-15T14:08:40.813Z,80.41
2023-05-15T14:11:07.486Z,80.04
2023-05-15T14:13:34.361Z,81.62
2023-05-15T14:16:01.049Z,81.56
2023-05-15T14:18:28.632Z,80.82
2023-05-15T14:20:57.339Z,81.13
2023-05-15T14:23:24.078Z,82.02
2023-05-15T14:25:50.756Z,82.71
2023-05-15T14:28:17.393Z,82.95
2023-05-15T14:30:44.021Z,82.39
2023-05-15T14:33:10.788Z,82.79
2023-05-15T14:35:38.524Z,82.97
2023-05-15T14:38:05.353Z,84.34
2023-05-15T14:40:31.988Z,83.77
2023-05-15T14:42:58.604Z,84.31
2023-05-15T14:45:25.579Z,84.77
2023-05-15T14:47:52.466Z,84.67
2023-05-15T14:50:19.213Z,85.25
2023-05-15T14:52:46.486Z,87.24
2023-05-15T14:55:13.198Z,87.73
2023-05-15T14:57:39.863Z,87.85
2023-05-15T15:00:07.262Z,88.04
2023-05-15T15:02:34.208Z,89.56
2023-05-15T15:05:01.136Z,91.54
2023-05-15T15:07:30.686Z,91.57
2023-05-15T15:09:58.339Z,90.38
2023-05-15T15:12:25.050Z,90.75
2023-05-15T15:14:51.678Z,89.92
2023-05-15T15:17:18.549Z,90.88
2023-05-15T15:19:45.205Z,90.63
2023-05-15T15:22:14.972Z,91.64
2023-05-15T15:24:41.456Z,91.56
2023-05-15T15:27:11.272Z,90.51
2023-05-15T15:29:37.836Z,91.22
2023-05-15T15:32:04.671Z,89.64
2023-05-15T15:34:31.438Z,91.68
2023-05-15T15:37:00.366Z,89.78
2023-05-15T15:39:26.959Z,90.64
2023-05-15T15:41:54.498Z,90.66
2023-05-15T15:44:21.175Z,91.58
2023-05-15T15:46:47.887Z,91.36
2023-05-15T15:49:16.646Z,90.96
2023-05-15T15:51:45.529Z,91.00
2023-05-15T15:54:12.156Z,90.96
2023-05-15T15:56:38.811Z,92.12
2023-05-15T15:59:05.635Z,92.61
2023-05-15T16:01:32.953Z,92.12
2023-05-15T16:03:59.691Z,91.61
2023-05-15T16:06:26.308Z,91.50
2023-05-15T16:08:53.037Z,91.03
2023-05-15T16:11:21.604Z,91.92
2023-05-15T16:13:48.275Z,91.81
2023-05-15T16:16:14.948Z,90.83
2023-05-15T16:18:42.056Z,91.21
2023-05-15T16:21:09.966Z,91.00
2023-05-15T16:23:38.033Z,91.38
2023-05-15T16:26:05.355Z,92.16
2023-05-15T16:28:32.221Z,91.81
2023-05-15T16:30:59.139Z,91.99
2023-05-15T16:33:25.989Z,92.12
2023-05-15T16:35:52.821Z,91.60
2023-05-15T16:38:19.945Z,92.45
2023-05-15T16:40:46.818Z,91.56
2023-05-15T16:43:14.056Z,92.08
2023-05-15T16:45:40.762Z,91.83
2023-05-15T16:48:07.870Z,92.69
2023-05-15T16:50:37.992Z,92.34
2023-05-15T16:53:05.156Z,92.43
2023-05-15T16:55:33.160Z,92.12
2023-05-15T16:57:59.905Z,92.45
2023-05-15T17:00:27.017Z,92.68
2023-05-15T17:02:54.609Z,92.13
2023-05-15T17:05:21.464Z,92.32
2023-05-15T17:07:48.075Z,92.16
2023-05-15T17:10:14.637Z,92.17
2023-05-15T17:12:41.495Z,91.92
2023-05-15T17:15:08.436Z,92.92
2023-05-15T17:17:35.104Z,93.39
2023-05-15T17:20:03.257Z,93.26
2023-05-15T17:22:30.127Z,93.55
2023-05-15T17:24:56.809Z,93.51
2023-05-15T17:27:24.556Z,94.26
2023-05-15T17:29:51.903Z,94.08
2023-05-15T17:32:19.162Z,94.02
2023-05-15T17:34:46.851Z,93.92
2023-05-15T17:37:13.969Z,93.39
2023-05-15T17:39:40.733Z,93.50
2023-05-15T17:42:07.464Z,94.00
2023-05-15T17:44:34.141Z,94.52
2023-05-15T17:47:00.989Z,94.54
2023-05-15T17:49:28.052Z,95.55
2023-05-15T17:51:54.722Z,94.59
2023-05-15T17:54:21.422Z,94.54
2023-05-15T17:56:49.272Z,95.15
2023-05-15T17:59:16.121Z,94.90
2023-05-15T18:01:42.876Z,95.43
2023-05-15T18:04:09.738Z,95.16
2023-05-15T18:06:36.734Z,95.72
2023-05-15T18:09:05.198Z,95.13
2023-05-15T18:11:31.930Z,94.57
2023-05-15T18:13:58.541Z,94.29
2023-05-15T18:16:25.145Z,94.05
2023-05-15T18:18:54.860Z,95.13
2023-05-15T18:21:21.580Z,95.28
2023-05-15T18:23:48.438Z,95.14
2023-05-15T18:26:15.067Z,95.51
2023-05-15T18:28:41.675Z,95.15
2023-05-15T18:31:08.500Z,94.93
2023-05-15T18:33:35.163Z,94.96
2023-05-15T18:36:01.784Z,95.07
2023-05-15T18:38:29.039Z,95.02
2023-05-15T18:40:55.621Z,95.61
2023-05-15T18:43:22.340Z,93.93
2023-05-15T18:45:49.022Z,94.27
2023-05-15T18:48:15.734Z,95.46
2023-05-15T18:50:42.713Z,94.25
2023-05-15T18:53:09.460Z,93.70
2023-05-15T18:55:36.129Z,93.56
2023-05-15T18:58:02.803Z,94.43
2023-05-15T19:00:38.130Z,94.33
2023-05-15T19:03:06.543Z,94.39
2023-05-15T19:05:34.258Z,93.41
2023-05-15T19:08:01.427Z,93.85
2023-05-15T19:10:29.635Z,95.28
2023-05-15T19:12:57.181Z,95.63
2023-05-15T19:15:25.136Z,95.28
2023-05-15T19:17:52.045Z,94.88
2023-05-15T19:20:19.064Z,95.43
2023-05-15T19:22:46.291Z,94.76
2023-05-15T19:25:13.104Z,95.09
2023-05-15T19:27:39.847Z,94.43
2023-05-15T19:30:07.201Z,94.16
2023-05-15T19:32:34.300Z,93.69
2023-05-15T19:35:01.930Z,94.35
2023-05-15T19:37:30.163Z,93.74
2023-05-15T19:39:57.209Z,94.37
2023-05-15T19:42:23.995Z,94.19
2023-05-15T19:44:50.675Z,94.70
2023-05-15T19:47:21.347Z,95.36
2023-05-15T19:49:48.167Z,95.50
2023-05-15T19:52:16.302Z,94.84
2023-05-15T19:54:42.913Z,95.22
2023-05-15T19:57:09.558Z,94.95
2023-05-15T19:59:36.158Z,95.39
2023-05-15T20:02:03.035Z,94.62
2023-05-15T20:04:29.904Z,95.49
2023-05-15T20:06:56.564Z,94.29
2023-05-15T20:09:23.159Z,94.21
2023-05-15T20:11:49.761Z,95.00
2023-05-15T20:14:16.652Z,94.87
2023-05-15T20:16:43.585Z,94.23
2023-05-15T20:19:11.212Z,94.96
2023-05-15T20:21:38.942Z,94.58
2023-05-15T20:24:06.114Z,94.78
2023-05-15T20:26:32.911Z,95.20
2023-05-15T20:28:59.604Z,94.94
2023-05-15T20:31:26.316Z,95.17
2023-05-15T20:33:53.057Z,95.12
2023-05-15T20:36:20.223Z,96.19
2023-05-15T20:38:46.894Z,94.97
2023-05-15T20:41:13.525Z,95.46
2023-05-15T20:43:40.136Z,95.99
2023-05-15T20:46:09.238Z,95.56
2023-05-15T20:48:36.476Z,95.89
2023-05-15T20:51:03.304Z,96.10
2023-05-15T20:53:29.993Z,95.73
2023-05-15T20:55:56.692Z,95.50
2023-05-15T20:58:23.320Z,95.52
2023-05-15T21:00:50.017Z,96.33
2023-05-15T21:03:16.740Z,96.24
2023-05-15T21:05:43.391Z,95.80
2023-05-15T21:08:09.986Z,96.14
2023-05-15T21:10:36.612Z,95.78
2023-05-15T21:13:03.587Z,96.07
2023-05-15T21:15:30.355Z,96.20
2023-05-15T21:17:59.143Z,97.02
2023-05-15T21:20:28.732Z,95.42
2023-05-15T21:22:55.534Z,94.91
2023-05-15T21:25:22.236Z,95.15
2023-05-15T21:27:51.945Z,94.79
2023-05-15T21:30:18.957Z,94.61
2023-05-15T21:32:45.745Z,94.60
2023-05-15T21:35:12.365Z,95.00
2023-05-15T21:37:39.066Z,94.71
2023-05-15T21:40:06.757Z,94.79
2023-05-15T21:42:33.373Z,95.37
2023-05-15T21:45:00.046Z,95.04
2023-05-15T21:47:26.702Z,95.46
2023-05-15T21:49:53.330Z,95.56
2023-05-15T21:52:19.987Z,95.89
2023-05-15T21:54:46.619Z,95.47
2023-05-15T21:57:13.286Z,95.35
2023-05-15T21:59:40.173Z,96.80
2023-05-15T22:02:07.503Z,96.24
2023-05-15T22:04:34.380Z,96.00
2023-05-15T22:07:01.024Z,95.65
2023-05-15T22:09:27.660Z,96.00
2023-05-15T22:11:54.255Z,95.90
2023-05-15T22:14:21.982Z,95.88
2023-05-15T22:16:48.688Z,96.15
2023-05-15T22:19:31.689Z,95.85
2023-05-15T22:22:00.911Z,95.95
2023-05-15T22:24:27.602Z,96.92
2023-05-15T22:26:54.997Z,96.93
2023-05-15T22:29:21.936Z,96.86
2023-05-15T22:31:50.678Z,96.35
2023-05-15T22:34:17.463Z,96.40
2023-05-15T22:36:44.077Z,96.87
2023-05-15T22:39:11.668Z,96.49
2023-05-15T22:41:38.318Z,97.11
2023-05-15T22:44:05.160Z,96.44
2023-05-15T22:46:31.831Z,96.56
2023-05-15T22:49:00.504Z,96.44
2023-05-15T22:51:27.270Z,96.61
2023-05-15T22:53:53.858Z,96.31
2023-05-15T22:56:21.462Z,95.61
2023-05-15T22:58:48.243Z,95.78
2023-05-15T23:01:14.884Z,95.75
2023-05-15T23:03:41.665Z,96.46
2023-05-15T23:06:08.289Z,96.73
2023-05-15T23:08:34.958Z,96.36
2023-05-15T23:11:03.998Z,96.69
2023-05-15T23:13:30.676Z,96.93
2023-05-15T23:15:57.301Z,96.35
2023-05-15T23:18:24.024Z,96.54
2023-05-15T23:20:50.727Z,96.96
2023-05-15T23:23:17.419Z,96.26
2023-05-15T23:25:44.043Z,96.37
2023-05-15T23:28:11.009Z,96.75
2023-05-15T23:30:37.657Z,96.93
2023-05-15T23:33:04.346Z,96.48
2023-05-15T23:35:31.471Z,97.19
2023-05-15T23:37:58.147Z,96.69
2023-05-15T23:40:25.124Z,96.90
2023-05-15T23:42:51.988Z,97.05
2023-05-15T23:45:18.825Z,97.45
2023-05-15T23:47:46.731Z,97.19
2023-05-15T23:50:16.269Z,97.92
2023-05-15T23:52:42.853Z,97.15
2023-05-15T23:55:09.914Z,97.24
2023-05-15T23:57:36.490Z,97.00
